createdAt,value
2024-01-17T00:00:27.479Z,63.70
2024-01-17T00:03:16.099Z,60.90
2024-01-17T00:05:44.629Z,53.80
2024-01-17T00:08:13.401Z,52.10
2024-01-17T00:10:41.635Z,53.00
2024-01-17T00:13:10.009Z,54.30
2024-01-17T00:15:38.230Z,58.70
2024-01-17T00:18:06.592Z,60.40
2024-01-17T00:20:35.073Z,59.30
2024-01-17T00:23:03.453Z,64.30
2024-01-17T00:25:31.686Z,58.90
2024-01-17T00:27:59.897Z,63.70
2024-01-17T00:30:28.244Z,70.70
2024-01-17T00:32:57.614Z,65.70
2024-01-17T00:35:26.747Z,65.70
2024-01-17T00:37:55.122Z,56.30
2024-01-17T00:40:23.407Z,62.40
2024-01-17T00:42:51.670Z,55.60
2024-01-17T00:45:20.782Z,52.40
2024-01-17T00:47:49.135Z,45.40
2024-01-17T00:50:19.474Z,46.60
2024-01-17T00:52:47.831Z,54.20
2024-01-17T00:55:16.077Z,47.60
2024-01-17T00:57:44.447Z,46.40
2024-01-17T01:00:13.363Z,52.80
2024-01-17T01:02:43.846Z,50.50
2024-01-17T01:05:15.966Z,46.10
2024-01-17T01:09:01.420Z,44.20
2024-01-17T01:11:34.557Z,33.90
2024-01-17T01:14:03.185Z,38.70
2024-01-17T01:16:31.395Z,40.30
2024-01-17T01:18:59.768Z,37.90
2024-01-17T01:21:28.143Z,35.90
2024-01-17T01:23:56.383Z,35.20
2024-01-17T01:26:24.754Z,36.10
2024-01-17T01:28:53.086Z,35.60
2024-01-17T01:31:21.417Z,39.40
2024-01-17T01:33:49.778Z,39.80
2024-01-17T01:36:18.160Z,37.00
2024-01-17T01:38:46.406Z,35.50
2024-01-17T01:41:14.624Z,32.80
2024-01-17T01:43:42.799Z,33.90
2024-01-17T01:46:15.731Z,35.90
2024-01-17T01:48:45.058Z,35.20
2024-01-17T01:51:14.662Z,37.20
2024-01-17T01:53:45.478Z,37.40
2024-01-17T01:56:16.913Z,38.60
2024-01-17T01:58:48.159Z,36.70
2024-01-17T02:01:17.700Z,35.80
2024-01-17T02:03:48.087Z,37.90
2024-01-17T02:06:19.650Z,37.70
2024-01-17T02:08:47.984Z,37.00
2024-01-17T02:11:17.780Z,36.30
2024-01-17T02:13:46.308Z,35.90
2024-01-17T02:16:16.633Z,39.00
2024-01-17T02:18:45.287Z,40.40
2024-01-17T02:21:13.795Z,40.60
2024-01-17T02:23:42.122Z,44.60
2024-01-17T02:26:10.458Z,49.90
2024-01-17T02:28:38.642Z,36.70
2024-01-17T02:31:07.368Z,45.80
2024-01-17T02:33:35.837Z,35.00
2024-01-17T02:36:04.749Z,34.20
2024-01-17T02:38:33.045Z,37.80
2024-01-17T02:41:01.276Z,38.00
2024-01-17T02:43:30.204Z,36.20
2024-01-17T02:45:58.472Z,38.50
2024-01-17T02:48:26.813Z,32.70
2024-01-17T02:50:55.157Z,34.40
2024-01-17T02:53:23.409Z,40.90
2024-01-17T02:55:51.783Z,39.00
2024-01-17T02:58:20.042Z,39.40
2024-01-17T03:00:48.321Z,44.50
2024-01-17T03:03:16.597Z,35.70
2024-01-17T03:05:45.167Z,34.80
2024-01-17T03:08:13.802Z,37.50
2024-01-17T03:10:42.047Z,36.30
2024-01-17T03:13:13.633Z,36.20
2024-01-17T03:15:42.046Z,37.80
2024-01-17T03:18:15.123Z,39.20
2024-01-17T03:20:44.148Z,44.60
2024-01-17T03:23:12.420Z,41.30
2024-01-17T03:25:40.654Z,42.20
2024-01-17T03:28:08.880Z,45.30
2024-01-17T03:30:38.140Z,38.80
2024-01-17T03:33:06.991Z,37.10
2024-01-17T03:35:35.362Z,36.60
2024-01-17T03:38:03.901Z,32.80
2024-01-17T03:40:32.129Z,37.00
2024-01-17T03:43:00.336Z,33.10
2024-01-17T03:45:28.630Z,33.70
2024-01-17T03:47:56.869Z,31.00
2024-01-17T03:50:25.609Z,31.90
2024-01-17T03:52:54.327Z,31.00
2024-01-17T03:55:22.729Z,36.40
2024-01-17T03:57:50.960Z,32.40
2024-01-17T04:00:19.548Z,36.70
2024-01-17T04:02:47.913Z,37.40
2024-01-17T04:05:20.593Z,35.70
2024-01-17T04:07:48.760Z,36.70
2024-01-17T04:10:17.361Z,31.90
2024-01-17T04:12:45.626Z,34.30
2024-01-17T04:15:13.964Z,32.50
2024-01-17T04:17:42.317Z,33.90
2024-01-17T04:20:11.169Z,43.70
2024-01-17T04:22:39.465Z,30.50
2024-01-17T04:25:08.465Z,40.80
2024-01-17T04:27:37.050Z,39.70
2024-01-17T04:30:07.687Z,33.10
2024-01-17T04:32:36.829Z,34.50
2024-01-17T04:35:06.474Z,31.30
2024-01-17T04:37:34.775Z,29.70
2024-01-17T04:40:03.079Z,24.30
2024-01-17T04:42:31.341Z,23.50
2024-01-17T04:44:59.583Z,25.40
2024-01-17T04:47:28.007Z,31.50
2024-01-17T04:49:56.915Z,65.80
2024-01-17T04:52:25.344Z,50.10
2024-01-17T04:54:53.574Z,41.10
2024-01-17T04:57:21.766Z,64.20
2024-01-17T04:59:50.008Z,47.50
2024-01-17T05:02:18.278Z,41.20
2024-01-17T05:04:46.571Z,83.20
2024-01-17T05:07:14.821Z,53.20
2024-01-17T05:09:43.195Z,80.40
2024-01-17T05:12:12.746Z,69.60
2024-01-17T05:14:42.164Z,74.10
2024-01-17T05:17:10.454Z,49.00
2024-01-17T05:19:40.244Z,46.70
2024-01-17T05:22:11.280Z,49.50
2024-01-17T05:24:39.535Z,46.70
2024-01-17T05:27:07.878Z,46.90
2024-01-17T05:29:44.378Z,83.10
2024-01-17T05:32:12.897Z,71.60
2024-01-17T05:34:43.794Z,88.50
2024-01-17T05:37:12.034Z,58.30
2024-01-17T05:39:40.345Z,58.80
2024-01-17T05:42:08.702Z,51.80
2024-01-17T05:44:37.209Z,49.60
2024-01-17T05:47:05.846Z,50.40
2024-01-17T05:49:34.120Z,52.20
2024-01-17T05:52:02.352Z,42.90
2024-01-17T05:54:30.588Z,136.40
2024-01-17T05:56:58.835Z,175.90
2024-01-17T05:59:27.068Z,151.40
2024-01-17T06:01:56.984Z,88.40
2024-01-17T06:04:25.693Z,85.20
2024-01-17T06:06:53.987Z,146.50
2024-01-17T06:09:22.248Z,98.30
2024-01-17T06:11:51.035Z,80.40
2024-01-17T06:14:19.340Z,88.40
2024-01-17T06:16:48.440Z,56.90
2024-01-17T06:19:18.260Z,45.70
2024-01-17T06:21:46.552Z,52.20
2024-01-17T06:24:14.803Z,36.20
2024-01-17T06:26:43.251Z,56.40
2024-01-17T06:29:11.873Z,37.70
2024-01-17T06:31:40.141Z,29.90
2024-01-17T06:34:08.542Z,36.70
2024-01-17T06:36:36.925Z,50.80
2024-01-17T06:39:06.288Z,48.80
2024-01-17T06:41:34.609Z,93.30
2024-01-17T06:44:02.977Z,81.20
2024-01-17T06:46:31.250Z,49.20
2024-01-17T06:48:59.817Z,40.10
2024-01-17T06:51:28.226Z,35.50
2024-01-17T06:53:56.464Z,34.60
2024-01-17T06:56:24.685Z,56.70
2024-01-17T06:58:53.197Z,32.60
2024-01-17T07:01:21.978Z,25.90
2024-01-17T07:03:50.268Z,18.50
2024-01-17T07:06:18.618Z,24.70
2024-01-17T07:08:47.128Z,43.10
2024-01-17T07:11:15.898Z,35.00
2024-01-17T07:13:44.149Z,41.40
2024-01-17T07:16:17.900Z,36.70
2024-01-17T07:18:46.305Z,33.30
2024-01-17T07:21:14.702Z,31.50
2024-01-17T07:23:45.188Z,32.00
2024-01-17T07:26:13.492Z,28.90
2024-01-17T07:28:41.708Z,23.50
2024-01-17T07:31:10.010Z,32.80
2024-01-17T07:33:38.490Z,45.90
2024-01-17T07:36:07.473Z,29.20
2024-01-17T07:38:35.890Z,45.10
2024-01-17T07:41:04.684Z,20.10
2024-01-17T07:43:33.215Z,21.30
2024-01-17T07:46:02.204Z,26.80
2024-01-17T07:48:30.827Z,19.80
2024-01-17T07:50:59.344Z,14.30
2024-01-17T07:53:28.745Z,22.90
2024-01-17T07:55:57.427Z,14.70
2024-01-17T07:58:25.798Z,15.80
2024-01-17T08:00:55.168Z,14.90
2024-01-17T08:03:24.635Z,19.60
2024-01-17T08:05:54.334Z,14.60
2024-01-17T08:08:22.577Z,15.70
2024-01-17T08:10:50.858Z,17.10
2024-01-17T08:13:19.141Z,23.00
2024-01-17T08:15:47.628Z,18.70
2024-01-17T08:18:15.984Z,21.30
2024-01-17T08:20:44.649Z,18.70
2024-01-17T08:23:14.152Z,21.50
2024-01-17T08:25:42.370Z,18.10
2024-01-17T08:28:10.612Z,32.50
2024-01-17T08:30:39.079Z,36.60
2024-01-17T08:33:07.395Z,39.20
2024-01-17T08:35:35.800Z,17.50
2024-01-17T08:38:05.002Z,61.30
2024-01-17T08:40:36.413Z,40.10
2024-01-17T08:43:06.120Z,35.10
2024-01-17T08:45:34.342Z,25.60
2024-01-17T08:48:02.762Z,17.20
2024-01-17T08:50:31.248Z,13.80
2024-01-17T08:52:59.451Z,16.60
2024-01-17T08:55:28.128Z,21.10
2024-01-17T08:57:56.361Z,21.90
2024-01-17T09:00:24.958Z,22.10
2024-01-17T09:02:54.046Z,15.70
2024-01-17T09:05:22.469Z,18.70
2024-01-17T09:07:51.021Z,19.60
2024-01-17T09:10:19.670Z,11.80
2024-01-17T09:12:47.900Z,10.30
2024-01-17T09:15:16.375Z,11.90
2024-01-17T09:17:45.088Z,10.60
2024-01-17T09:20:16.469Z,11.90
2024-01-17T09:22:45.003Z,7.80
2024-01-17T09:25:13.323Z,7.90
2024-01-17T09:27:41.992Z,7.80
2024-01-17T09:30:10.627Z,10.50
2024-01-17T09:32:39.102Z,10.20
2024-01-17T09:35:09.547Z,8.30
2024-01-17T09:37:37.834Z,6.30
2024-01-17T09:40:07.481Z,9.00
2024-01-17T09:42:36.051Z,12.10
2024-01-17T09:45:05.013Z,10.40
2024-01-17T09:47:35.367Z,10.60
2024-01-17T09:50:04.753Z,9.80
2024-01-17T09:52:34.633Z,8.90
2024-01-17T09:55:03.950Z,9.20
2024-01-17T09:57:38.341Z,9.20
2024-01-17T10:00:10.674Z,10.70
2024-01-17T10:02:41.013Z,8.50
2024-01-17T10:05:12.916Z,10.00
2024-01-17T10:07:41.291Z,22.10
2024-01-17T10:10:12.940Z,16.50
2024-01-17T10:12:43.430Z,7.30
2024-01-17T10:15:18.036Z,9.40
2024-01-17T10:17:46.374Z,8.00
2024-01-17T10:20:14.752Z,8.00
2024-01-17T10:22:46.448Z,8.50
2024-01-17T10:25:14.734Z,4.90
2024-01-17T10:27:43.026Z,9.40
2024-01-17T10:30:12.791Z,8.60
2024-01-17T10:32:43.268Z,6.40
2024-01-17T10:35:13.172Z,8.00
2024-01-17T10:37:41.424Z,5.50
2024-01-17T10:40:15.064Z,10.20
2024-01-17T10:42:43.827Z,11.10
2024-01-17T10:45:22.653Z,11.50
2024-01-17T10:47:51.263Z,9.20
2024-01-17T10:50:21.880Z,19.70
2024-01-17T10:52:52.002Z,21.30
2024-01-17T10:55:22.530Z,23.40
2024-01-17T10:57:55.931Z,18.00
2024-01-17T11:00:31.196Z,25.50
2024-01-17T11:03:03.706Z,25.80
2024-01-17T11:05:35.397Z,30.30
2024-01-17T11:08:05.560Z,21.40
2024-01-17T11:10:34.848Z,114.40
2024-01-17T11:13:05.396Z,156.00
2024-01-17T11:15:37.455Z,73.00
2024-01-17T11:18:09.403Z,24.80
2024-01-17T11:20:42.204Z,29.20
2024-01-17T11:23:25.611Z,19.80
2024-01-17T11:26:19.342Z,21.10
2024-01-17T11:31:59.972Z,15.00
2024-01-17T11:34:28.757Z,15.10
2024-01-17T11:36:57.053Z,11.10
2024-01-17T11:39:26.215Z,20.00
2024-01-17T11:41:55.701Z,19.20
2024-01-17T11:44:24.856Z,19.50
2024-01-17T11:46:55.417Z,17.60
2024-01-17T11:49:43.506Z,19.60
2024-01-17T11:52:35.918Z,20.80
2024-01-17T11:55:06.339Z,25.90
2024-01-17T11:57:37.604Z,31.20
2024-01-17T12:00:14.803Z,35.30
2024-01-17T12:02:45.225Z,16.70
2024-01-17T12:05:14.012Z,17.30
2024-01-17T12:07:48.720Z,17.40
2024-01-17T12:10:17.230Z,14.90
2024-01-17T12:12:45.501Z,21.90
2024-01-17T12:15:14.794Z,18.30
2024-01-17T12:17:46.820Z,13.00
2024-01-17T12:20:15.430Z,17.80
2024-01-17T12:22:53.280Z,12.90
2024-01-17T12:25:22.648Z,15.00
2024-01-17T12:27:55.836Z,16.10
2024-01-17T12:32:52.511Z,15.50
2024-01-17T12:35:20.901Z,11.10
2024-01-17T12:37:49.921Z,11.20
2024-01-17T12:40:18.395Z,11.40
2024-01-17T12:42:50.287Z,13.80
2024-01-17T12:45:18.976Z,14.60
2024-01-17T12:47:47.554Z,11.60
2024-01-17T12:50:15.986Z,11.40
2024-01-17T12:52:44.244Z,14.00
2024-01-17T12:55:12.869Z,12.00
2024-01-17T12:57:42.380Z,13.30
2024-01-17T13:00:12.557Z,14.80
2024-01-17T13:02:40.917Z,16.00
2024-01-17T13:05:10.450Z,11.30
2024-01-17T13:07:42.240Z,14.00
2024-01-17T13:10:23.911Z,8.10
2024-01-17T13:12:56.742Z,12.00
2024-01-17T13:15:26.005Z,9.20
2024-01-17T13:17:55.117Z,12.10
2024-01-17T13:20:28.104Z,14.50
2024-01-17T13:22:56.839Z,16.60
2024-01-17T13:25:25.998Z,14.50
2024-01-17T13:28:00.529Z,16.10
2024-01-17T13:30:35.579Z,32.40
2024-01-17T13:33:12.317Z,29.00
2024-01-17T13:35:41.560Z,25.80
2024-01-17T13:38:10.166Z,22.00
2024-01-17T13:40:38.577Z,24.30
2024-01-17T13:43:06.868Z,13.20
2024-01-17T13:45:35.196Z,15.50
2024-01-17T13:48:03.951Z,19.70
2024-01-17T13:50:33.478Z,14.50
2024-01-17T13:53:09.531Z,20.10
2024-01-17T13:55:37.827Z,16.30
2024-01-17T13:58:06.067Z,14.80
2024-01-17T14:00:39.734Z,19.10
2024-01-17T14:03:09.927Z,18.60
2024-01-17T14:05:39.090Z,19.50
2024-01-17T14:08:08.405Z,13.60
2024-01-17T14:10:36.891Z,15.80
2024-01-17T14:13:05.192Z,17.30
2024-01-17T14:15:34.303Z,15.80
2024-01-17T14:18:02.892Z,14.20
2024-01-17T14:20:31.257Z,16.10
2024-01-17T14:22:59.584Z,17.40
2024-01-17T14:25:27.889Z,14.90
2024-01-17T14:27:56.123Z,16.70
2024-01-17T14:30:24.380Z,15.80
2024-01-17T14:32:52.777Z,17.20
2024-01-17T14:35:21.259Z,16.90
2024-01-17T14:37:49.544Z,13.80
2024-01-17T14:40:18.032Z,11.40
2024-01-17T14:42:46.286Z,13.90
2024-01-17T14:45:14.625Z,11.60
2024-01-17T14:47:46.147Z,13.20
2024-01-17T14:50:15.889Z,12.80
2024-01-17T14:52:46.191Z,15.10
2024-01-17T14:55:14.702Z,19.40
2024-01-17T14:57:42.963Z,15.60
2024-01-17T15:00:20.909Z,14.20
2024-01-17T15:02:50.477Z,14.60
2024-01-17T15:05:19.563Z,11.20
2024-01-17T15:07:50.932Z,13.20
2024-01-17T15:10:23.647Z,13.30
2024-01-17T15:12:52.101Z,13.40
2024-01-17T15:15:20.436Z,16.50
2024-01-17T15:17:48.853Z,15.90
2024-01-17T15:20:17.329Z,20.30
2024-01-17T15:22:45.597Z,17.20
2024-01-17T15:25:13.941Z,15.80
2024-01-17T15:27:42.959Z,17.20
2024-01-17T15:30:16.005Z,17.80
2024-01-17T15:32:45.980Z,35.20
2024-01-17T15:35:15.063Z,84.60
2024-01-17T15:37:43.326Z,66.70
2024-01-17T15:40:12.316Z,35.80
2024-01-17T15:42:42.472Z,22.90
2024-01-17T15:45:11.822Z,24.10
2024-01-17T15:47:40.955Z,32.60
2024-01-17T15:50:10.128Z,44.50
2024-01-17T15:52:38.443Z,22.60
2024-01-17T15:55:07.909Z,53.00
2024-01-17T15:57:36.421Z,77.00
2024-01-17T16:00:10.429Z,89.00
2024-01-17T16:02:42.407Z,76.00
2024-01-17T16:05:11.559Z,60.80
2024-01-17T16:07:40.282Z,80.10
2024-01-17T16:10:09.853Z,95.10
2024-01-17T16:12:38.491Z,75.90
2024-01-17T16:15:10.432Z,25.10
2024-01-17T16:17:40.271Z,24.70
2024-01-17T16:20:13.810Z,32.40
2024-01-17T16:22:42.816Z,63.90
2024-01-17T16:25:11.688Z,58.90
2024-01-17T16:27:43.390Z,67.00
2024-01-17T16:30:12.959Z,55.60
2024-01-17T16:32:45.750Z,47.90
2024-01-17T16:37:43.073Z,65.70
2024-01-17T16:40:14.005Z,26.00
2024-01-17T16:42:44.442Z,25.50
2024-01-17T16:45:12.689Z,20.20
2024-01-17T16:47:43.466Z,19.40
2024-01-17T16:50:12.585Z,16.50
2024-01-17T16:52:40.835Z,25.90
2024-01-17T16:55:09.258Z,22.00
2024-01-17T16:57:37.530Z,16.90
2024-01-17T17:00:07.241Z,23.20
2024-01-17T17:02:37.381Z,14.60
2024-01-17T17:05:07.140Z,15.80
2024-01-17T17:07:36.466Z,22.40
2024-01-17T17:10:05.334Z,20.90
2024-01-17T17:12:33.596Z,22.20
2024-01-17T17:15:04.237Z,17.30
2024-01-17T17:17:34.721Z,15.80
2024-01-17T17:20:03.578Z,13.60
2024-01-17T17:22:37.604Z,14.20
2024-01-17T17:25:07.864Z,14.70
2024-01-17T17:27:36.121Z,11.70
2024-01-17T17:30:05.749Z,13.80
2024-01-17T17:32:34.206Z,13.80
2024-01-17T17:35:02.524Z,13.10
2024-01-17T17:37:30.732Z,14.90
2024-01-17T17:40:07.377Z,18.50
2024-01-17T17:42:35.762Z,26.20
2024-01-17T17:45:04.564Z,28.50
2024-01-17T17:47:34.675Z,41.20
2024-01-17T17:50:03.598Z,36.30
2024-01-17T17:52:31.971Z,31.50
2024-01-17T17:55:01.110Z,55.20
2024-01-17T17:57:32.252Z,57.20
2024-01-17T18:00:01.042Z,73.00
2024-01-17T18:02:29.720Z,36.30
2024-01-17T18:04:57.986Z,69.20
2024-01-17T18:07:26.325Z,42.90
2024-01-17T18:09:55.063Z,27.70
2024-01-17T18:12:24.347Z,43.90
2024-01-17T18:14:52.902Z,52.10
2024-01-17T18:17:21.466Z,38.70
2024-01-17T18:19:50.680Z,29.80
2024-01-17T18:22:19.070Z,24.10
2024-01-17T18:24:47.797Z,20.90
2024-01-17T18:27:16.617Z,21.40
2024-01-17T18:29:45.664Z,21.50
2024-01-17T18:32:14.014Z,17.80
2024-01-17T18:34:42.269Z,16.90
2024-01-17T18:37:10.853Z,23.80
2024-01-17T18:39:39.089Z,18.80
2024-01-17T18:42:07.437Z,22.50
2024-01-17T18:44:35.694Z,20.70
2024-01-17T18:47:04.315Z,16.20
2024-01-17T18:49:32.643Z,15.50
2024-01-17T18:52:01.834Z,17.90
2024-01-17T18:54:30.421Z,18.70
2024-01-17T18:56:58.816Z,15.00
2024-01-17T18:59:27.139Z,18.50
2024-01-17T19:01:55.563Z,14.90
2024-01-17T19:04:24.200Z,13.70
2024-01-17T19:06:52.737Z,14.80
2024-01-17T19:09:21.022Z,18.00
2024-01-17T19:11:49.367Z,16.70
2024-01-17T19:14:18.368Z,20.40
2024-01-17T19:16:47.714Z,16.90
2024-01-17T19:19:16.039Z,16.70
2024-01-17T19:21:44.428Z,20.20
2024-01-17T19:24:14.866Z,18.80
2024-01-17T19:26:46.919Z,17.00
2024-01-17T19:29:15.372Z,18.10
2024-01-17T19:31:45.038Z,15.80
2024-01-17T19:34:13.484Z,15.50
2024-01-17T19:36:41.891Z,21.40
2024-01-17T19:39:10.188Z,19.30
2024-01-17T19:41:39.267Z,16.10
2024-01-17T19:44:07.514Z,17.60
2024-01-17T19:46:37.557Z,17.40
2024-01-17T19:49:05.955Z,17.90
